Menu

ASI In-Person Safety Seminars

Air Safety Institute Logo

Welcome

Join other pilots for comradery and increase your safety knowledge.

Registration is not required to attend, but we do encourage it. When you RSVP, you will be able to have the opportunity to add to your online event calendar.

Make it Personal

Aviation Safety:  Make it Personal

A look at safety trends in GA and discussion on ideas to: develop a culture that surrounds our individual flying environments; help us adopt the right mindset for each flight we take; develop techniques to work on skills specific to our individual type of flying; and enhance our decision making to avoid common risk areas.

Location Start Time End Time State Latitude Longitude cssIndex Topic cssIndex
Norman, OK 09-09-2017 9:00 AM 09-09-2017 9:45 AM Learn More Oklahoma 0E-15 0E-15 1 mtgMakeitPersonal SSMAKEIT_OK_170909

IFR Decision Making

IFR Decision Making:  Chasing Choices

Processing information and making clear decisions while flying in IMC can be challenging.  In this seminar we'll analyze accident scenarios where stress and confusion in IMC can lead to task saturation, problematic choices, and suboptimal decisions.

Location Start Time End Time State Latitude Longitude cssIndex Topic cssIndex
Norman, OK 09-09-2017 10:00 AM 09-09-2017 10:45 AM Learn More Oklahoma 0E-15 0E-15 2 mtgIFRDecisionMaking SSIFR_OK_170909

Takeoff Surprise

The Takeoff Surprise: Preparing for the Unexpected

Takeoff is often the place where problems are confusing and difficult to analyze, and reaction time is short.  In this seminar we'll analyze takeoff accident scenarios and the limited information they offer while deciding a safe course of action.

Location Start Time End Time State Latitude Longitude cssIndex Topic cssIndex
Norman, OK 09-09-2017 12:00 PM 09-09-2017 12:45 PM Learn More Oklahoma 0E-15 0E-15 3 mtgTakeoffSurprise SSTAKEOFF_OK_170909

Fly by Night

Fly by Night

Especially in light aircraft, flying after dark comes with real trade-offs. Smooth air, better performance, and stunning views are great—but they’re offset by trickier landings, invisible terrain, and limited emergency options. So what’s the key to staying safe after sundown?

ASI’s new seminar looks at night flying from a risk management perspective. Using decades of accident data, we identify common problems and recommend the best ways to avoid them. Along the way, we talk about:

  • Requirements for pilots and aircraft
  • Unique flight planning considerations
  • Why all nights are not created equal
  • Things that can take you by surprise

Location Start Time End Time State Latitude Longitude cssIndex Topic cssIndex
Houston, TX 09-11-2017 7:00 PM 09-11-2017 9:00 PM Learn More Texas 0E-15 0E-15 4 mtgFlybyNight SSFLY_TX_170911
Butler, PA 09-11-2017 7:00 PM 09-11-2017 9:00 PM Learn More Pennsylvania 40.779406000000000 -79.952066000000000 4 mtgFlybyNight SSFLY_PA_170911
Seattle, WA Special Aviation Location 09-11-2017 7:00 PM 09-11-2017 9:00 PM Learn More Washington 47.518352000000000 -122.297554000000000 4 mtgFlybyNight SSFLY_WA_170911
Jacksonville, FL 09-11-2017 7:00 PM 09-11-2017 9:00 PM Learn More Florida 30.251253000000000 -81.591904000000000 4 mtgFlybyNight SSFLY_FL_170911
Daytona Beach, FL 09-12-2017 5:30 PM 09-12-2017 7:30 PM Learn More Florida 29.192224000000000 -81.050670000000000 4 mtgFlybyNight SSFLY_FL_170912
Wichita, KS Special Aviation Location Fly to this Location 09-12-2017 7:00 PM 09-12-2017 9:00 PM Learn More Kansas 37.656569000000000 -97.425559000000000 4 mtgFlybyNight SSFLY_KS_170912
Houston, TX 09-12-2017 7:00 PM 09-12-2017 9:00 PM Learn More Texas 29.787817000000000 -95.643658000000000 4 mtgFlybyNight SSFLY_TX_170912
Harrisburg, PA 09-12-2017 7:00 PM 09-12-2017 9:00 PM Learn More Pennsylvania 40.242900000000000 -76.801500000000000 4 mtgFlybyNight SSFLY_PA_170912
Burlington, WA 09-12-2017 7:00 PM 09-12-2017 9:00 PM Learn More Washington 48.463190000000000 -122.421733000000000 4 mtgFlybyNight SSFLY_WA_170912
Oklahoma City, OK Special Aviation Location Fly to this Location 09-13-2017 7:00 PM 09-13-2017 9:00 PM Learn More Oklahoma 35.540679000000000 -97.636879000000000 4 mtgFlybyNight SSFLY_OK_170913
San Antonio, TX 09-13-2017 7:00 PM 09-13-2017 9:00 PM Learn More Texas 29.520264000000000 -98.492419000000000 4 mtgFlybyNight SSFLY_TX_170913
Bethlehem, PA 09-13-2017 7:00 PM 09-13-2017 9:00 PM Learn More Pennsylvania 40.664664000000000 -75.382485000000000 4 mtgFlybyNight SSFLY_PA_170913
Portland, OR 09-13-2017 7:00 PM 09-13-2017 9:00 PM Learn More Oregon 45.582800000000000 -122.576200000000000 4 mtgFlybyNight SSFLY_OR_170913
Melbourne, FL 09-13-2017 7:00 PM 09-13-2017 9:00 PM Learn More Florida 28.127800000000000 -80.578100000000000 4 mtgFlybyNight SSFLY_FL_170913
Rogers, AR Special Aviation Location Fly to this Location 09-14-2017 7:00 PM 09-14-2017 9:00 PM Learn More Arkansas 36.370622000000000 -94.103776000000000 4 mtgFlybyNight SSFLY_AR_170914
Austin, TX 09-14-2017 7:00 PM 09-14-2017 9:00 PM Learn More Texas 30.208032000000000 -97.755809000000000 4 mtgFlybyNight SSFLY_TX_170914
King Of Prussia, PA 09-14-2017 7:00 PM 09-14-2017 9:00 PM Learn More Pennsylvania 40.089306000000000 -75.388475000000000 4 mtgFlybyNight SSFLY_PA_170914
Eugene, OR 09-14-2017 7:00 PM 09-14-2017 9:00 PM Learn More Oregon 44.070150000000000 -123.103810000000000 4 mtgFlybyNight SSFLY_OR_170914
Ocala, FL 09-14-2017 7:00 PM 09-14-2017 9:00 PM Learn More Florida 29.150767000000000 -82.182562000000000 4 mtgFlybyNight SSFLY_FL_170914
Madison, WI 09-18-2017 7:00 PM 09-18-2017 9:00 PM Learn More Wisconsin 43.139055000000000 -89.325656000000000 4 mtgFlybyNight SSFLY_WI_170918
Salt Lake Cty, UT 09-18-2017 7:00 PM 09-18-2017 9:00 PM Learn More Utah 40.769209000000000 -111.897373000000000 4 mtgFlybyNight SSFLY_UT_170918
Racine, WI 09-19-2017 7:00 PM 09-19-2017 9:00 PM Learn More Wisconsin 42.759067000000000 -87.821521000000000 4 mtgFlybyNight SSFLY_WI_170919
Green Bay, WI 09-20-2017 7:00 PM 09-20-2017 9:00 PM Learn More Wisconsin 44.496577000000000 -88.114470000000000 4 mtgFlybyNight SSFLY_WI_170920
Reno, NV 09-25-2017 7:00 PM 09-25-2017 9:00 PM Learn More Nevada 39.489013000000000 -119.794833000000000 4 mtgFlybyNight SSFLY_NV_170925
Hasbrouck Heights, NJ 09-25-2017 7:00 PM 09-25-2017 9:00 PM Learn More New Jersey 40.860417000000000 -74.069383700000000 4 mtgFlybyNight SSFLY_NJ_170925
Northbrook, IL 09-25-2017 7:00 PM 09-25-2017 9:00 PM Learn More Illinois 42.100515000000000 -87.882917000000000 4 mtgFlybyNight SSFLY_IL_170925
Sacramento, CA 09-26-2017 7:00 PM 09-26-2017 9:00 PM Learn More California 38.600554000000000 -121.431605000000000 4 mtgFlybyNight SSFLY_CA_170926
Hartford, CT 09-26-2017 7:00 PM 09-26-2017 9:00 PM Learn More Connecticut 41.769923000000000 -72.673566000000000 4 mtgFlybyNight SSFLY_CT_170926
Lisle, IL 09-26-2017 7:00 PM 09-26-2017 9:00 PM Learn More Illinois 41.808006000000000 -88.109355000000000 4 mtgFlybyNight SSFLY_IL_170926
Milpitas, CA 09-27-2017 7:00 PM 09-27-2017 9:00 PM Learn More California 37.434131000000000 -121.891969000000000 4 mtgFlybyNight SSFLY_CA_170927
Waltham, MA 09-27-2017 7:00 PM 09-27-2017 9:00 PM Learn More Massachusetts 42.397108000000000 -71.255421000000000 4 mtgFlybyNight SSFLY_MA_170927
East Peoria, IL 09-27-2017 7:00 PM 09-27-2017 9:00 PM Learn More Illinois 40.683300000000000 -89.590200000000000 4 mtgFlybyNight SSFLY_IL_170927
Santa Rosa, CA 09-28-2017 7:00 PM 09-28-2017 9:00 PM Learn More California 38.449800000000000 -122.688700000000000 4 mtgFlybyNight SSFLY_CA_170928
Manchester, NH 09-28-2017 7:00 PM 09-28-2017 9:00 PM Learn More New Hampshire 42.935960000000000 -71.413296000000000 4 mtgFlybyNight SSFLY_NH_170928
Rockford, IL 09-28-2017 7:00 PM 09-28-2017 9:00 PM Learn More Illinois 42.270690000000000 -88.969063000000000 4 mtgFlybyNight SSFLY_IL_170928

Nontowered Case Studies

Nontowered Case Studies: What Went Wrong?

Flying at nontowered fields is a balancing act. Especially on busy days, it demands concentration, communication, sharp eyes, solid stick-and-rudder skills, and the ability to improvise at a moment’s notice. Sometimes the margin for error can be very slim.

With that in mind, ASI’s new seminar turns a spotlight on real-life accidents in the nontowered environment. Together with our expert presenters, you’ll play the role of accident investigator—starting at the crash scene and working backwards through physical evidence, eyewitness testimony, and other leads to figure out what went wrong, and why.

Location Start Time End Time State Latitude Longitude cssIndex Topic cssIndex
Idaho Falls, ID 09-19-2017 7:00 PM 09-19-2017 9:00 PM Learn More Idaho 43.511000000000000 -112.072300000000000 5 mtgNontoweredCaseStudies SSNONT_ID_170919
Boise, ID 09-20-2017 7:00 PM 09-20-2017 9:00 PM Learn More Idaho 43.619893000000000 -116.235125000000000 5 mtgNontoweredCaseStudies SSNONT_ID_170920

Questions? Contact us at [email protected] or 800/USA-AOPA (800/872-2672)
Monday - Friday, 8:30 am - 6:00 pm ET